Terminal Aerodrome Forecast
Issued by NWS

Home | Current Version | Previous Version | Text Only | Print | Product List | Glossary On
Versions: 1 2 3 4 5 6 7 8 9 10 11 12 13 14 15 16 17
000
FTUS43 KABR 282300
TAFATY
TAF
KATY 282328Z 0100/0124 19012KT P6SM FEW030 SCT060
     FM010100 23009KT P6SM BKN030 OVC060
      TEMPO 0101/0103 -SN BKN025
     FM010300 26009KT P6SM SKC
     FM011900 29014G22KT P6SM BKN040=

USA.gov is the U.S. government's official web portal to all federal, state and local government web resources and services.